createdAt,value
2018-03-28T00:00:29.927Z,10.70
2018-03-28T00:03:04.740Z,10.17
2018-03-28T00:05:39.391Z,11.00
2018-03-28T00:08:13.087Z,9.33
2018-03-28T00:10:46.943Z,9.77
2018-03-28T00:13:21.321Z,8.17
2018-03-28T00:15:55.514Z,9.17
2018-03-28T00:18:29.884Z,9.23
2018-03-28T00:21:05.235Z,10.10
2018-03-28T00:23:39.773Z,10.80
2018-03-28T00:26:13.932Z,11.07
2018-03-28T00:28:48.856Z,11.00
2018-03-28T00:31:22.783Z,12.97
2018-03-28T00:33:56.773Z,12.63
2018-03-28T00:36:31.096Z,12.50
2018-03-28T00:39:05.846Z,12.23
2018-03-28T00:41:40.731Z,13.97
2018-03-28T00:44:15.565Z,14.00
2018-03-28T00:46:49.587Z,13.67
2018-03-28T00:49:23.366Z,12.07
2018-03-28T00:51:57.195Z,13.20
2018-03-28T00:54:31.282Z,13.00
2018-03-28T00:57:05.987Z,12.20
2018-03-28T00:59:40.745Z,12.67
2018-03-28T01:02:14.715Z,13.23
2018-03-28T01:04:48.648Z,11.63
2018-03-28T01:07:22.596Z,11.27
2018-03-28T01:09:57.601Z,9.60
2018-03-28T01:12:31.913Z,11.93
2018-03-28T01:15:06.274Z,10.57
2018-03-28T01:17:39.943Z,9.50
2018-03-28T01:20:14.504Z,10.67
2018-03-28T01:22:48.349Z,12.57
2018-03-28T01:25:22.831Z,11.10
2018-03-28T01:27:57.092Z,10.73
2018-03-28T01:30:31.207Z,11.30
2018-03-28T01:33:05.707Z,10.23
2018-03-28T01:35:40.961Z,9.83
2018-03-28T01:38:14.848Z,10.90
2018-03-28T01:40:49.285Z,11.33
2018-03-28T01:43:23.843Z,9.17
2018-03-28T01:45:58.640Z,10.60
2018-03-28T01:48:32.351Z,10.77
2018-03-28T01:51:06.151Z,10.03
2018-03-28T01:53:40.771Z,9.40
2018-03-28T01:56:14.585Z,9.03
2018-03-28T01:58:49.713Z,9.13
2018-03-28T02:01:23.512Z,9.10
2018-03-28T02:03:57.129Z,11.00
2018-03-28T02:06:31.051Z,9.70
2018-03-28T02:09:06.771Z,8.03
2018-03-28T02:11:41.256Z,9.47
2018-03-28T02:14:15.757Z,8.73
2018-03-28T02:16:49.622Z,7.57
2018-03-28T02:19:23.438Z,7.33
2018-03-28T02:21:58.682Z,7.27
2018-03-28T02:24:32.568Z,8.10
2018-03-28T02:27:07.291Z,7.97
2018-03-28T02:29:41.615Z,8.77
2018-03-28T02:32:16.032Z,7.73
2018-03-28T02:34:50.304Z,8.77
2018-03-28T02:37:24.060Z,7.17
2018-03-28T02:39:58.055Z,7.70
2018-03-28T02:42:31.772Z,7.50
2018-03-28T02:45:05.291Z,6.67
2018-03-28T02:47:39.852Z,7.43
2018-03-28T02:50:13.734Z,7.70
2018-03-28T02:52:48.738Z,7.87
2018-03-28T02:55:23.348Z,9.23
2018-03-28T02:57:57.412Z,9.17
2018-03-28T03:13:20.181Z,8.60
2018-03-28T03:15:54.506Z,6.50
2018-03-28T03:18:29.288Z,7.50
2018-03-28T03:21:02.969Z,7.60
2018-03-28T03:23:37.277Z,6.97
2018-03-28T03:26:11.179Z,7.83
2018-03-28T03:28:45.055Z,7.10
2018-03-28T03:31:19.335Z,8.50
2018-03-28T03:33:53.076Z,8.13
2018-03-28T03:36:27.240Z,7.83
2018-03-28T03:39:01.199Z,7.97
2018-03-28T03:41:36.045Z,7.27
2018-03-28T03:44:10.966Z,7.70
2018-03-28T03:46:44.890Z,7.40
2018-03-28T03:49:19.077Z,7.67
2018-03-28T03:51:53.097Z,7.63
2018-03-28T03:54:26.924Z,8.03
2018-03-28T03:57:01.636Z,7.50
2018-03-28T03:59:36.876Z,7.13
2018-03-28T04:02:11.503Z,7.27
2018-03-28T04:04:45.515Z,7.93
2018-03-28T04:07:20.572Z,8.23
2018-03-28T04:09:54.136Z,8.60
2018-03-28T04:12:29.052Z,10.30
2018-03-28T04:15:03.651Z,7.87
2018-03-28T04:17:38.643Z,7.47
2018-03-28T04:20:13.149Z,6.90
2018-03-28T04:22:47.797Z,6.53
2018-03-28T04:25:21.684Z,7.00
2018-03-28T04:27:55.697Z,7.07
2018-03-28T04:30:29.808Z,6.80
2018-03-28T04:33:03.886Z,6.90
2018-03-28T04:35:39.031Z,6.67
2018-03-28T04:38:13.148Z,7.33
2018-03-28T04:40:48.391Z,9.60
2018-03-28T04:43:22.728Z,8.37
2018-03-28T04:45:57.936Z,7.60
2018-03-28T04:48:32.582Z,7.63
2018-03-28T04:51:06.377Z,6.60
2018-03-28T04:53:40.097Z,6.60
2018-03-28T04:56:14.692Z,7.17
2018-03-28T04:58:49.835Z,6.60
2018-03-28T05:01:23.772Z,6.10
2018-03-28T05:03:58.577Z,6.67
2018-03-28T05:06:32.464Z,6.33
2018-03-28T05:09:07.402Z,6.77
2018-03-28T05:11:41.111Z,6.60
2018-03-28T05:14:15.733Z,6.97
2018-03-28T05:16:50.575Z,6.80
2018-03-28T05:19:26.616Z,6.57
2018-03-28T05:22:00.344Z,7.07
2018-03-28T05:24:35.171Z,6.07
2018-03-28T05:27:10.139Z,6.17
2018-03-28T05:29:43.899Z,6.47
2018-03-28T05:32:18.618Z,6.10
2018-03-28T05:34:52.507Z,6.83
2018-03-28T05:37:26.248Z,7.07
2018-03-28T05:40:00.948Z,6.57
2018-03-28T05:42:35.048Z,5.27
2018-03-28T05:45:09.875Z,5.80
2018-03-28T05:47:44.528Z,6.37
2018-03-28T05:50:19.689Z,7.60
2018-03-28T05:52:54.824Z,6.00
2018-03-28T05:55:28.582Z,7.00
2018-03-28T05:58:02.385Z,5.83
2018-03-28T06:00:36.933Z,7.03
2018-03-28T06:03:11.116Z,6.60
2018-03-28T06:05:45.615Z,7.30
2018-03-28T06:08:21.312Z,7.33
2018-03-28T06:10:56.142Z,7.50
2018-03-28T06:13:29.923Z,6.47
2018-03-28T06:16:03.727Z,5.30
2018-03-28T06:18:38.327Z,5.37
2018-03-28T06:21:12.584Z,6.20
2018-03-28T06:23:47.909Z,5.97
2018-03-28T06:26:22.552Z,5.13
2018-03-28T06:28:58.021Z,4.83
2018-03-28T06:31:31.596Z,5.27
2018-03-28T06:34:07.255Z,4.97
2018-03-28T06:36:42.478Z,5.47
2018-03-28T06:39:16.502Z,4.87
2018-03-28T06:41:50.592Z,5.53
2018-03-28T06:44:25.232Z,5.47
2018-03-28T06:47:00.324Z,7.83
2018-03-28T06:49:35.062Z,4.57
2018-03-28T06:52:09.080Z,6.30
2018-03-28T06:54:43.805Z,5.60
2018-03-28T06:57:19.138Z,5.83
2018-03-28T06:59:52.964Z,5.13
2018-03-28T07:02:26.985Z,5.10
2018-03-28T07:05:01.093Z,7.60
2018-03-28T07:07:36.242Z,5.80
2018-03-28T07:10:11.081Z,5.13
2018-03-28T07:12:46.035Z,5.50
2018-03-28T07:15:20.075Z,5.93
2018-03-28T07:17:54.407Z,5.67
2018-03-28T07:20:30.157Z,5.00
2018-03-28T07:23:03.943Z,5.33
2018-03-28T07:25:38.372Z,6.03
2018-03-28T07:28:13.312Z,8.03
2018-03-28T07:30:47.066Z,10.20
2018-03-28T07:33:21.544Z,6.50
2018-03-28T07:35:55.829Z,9.47
2018-03-28T07:38:30.806Z,7.73
2018-03-28T07:41:04.595Z,8.53
2018-03-28T07:43:41.194Z,5.67
2018-03-28T07:46:15.356Z,4.90
2018-03-28T07:48:50.184Z,5.63
2018-03-28T07:51:25.455Z,8.57
2018-03-28T07:53:59.333Z,10.60
2018-03-28T07:56:33.252Z,6.20
2018-03-28T07:59:08.156Z,7.60
2018-03-28T08:01:42.252Z,7.20
2018-03-28T08:04:17.048Z,8.17
2018-03-28T08:06:51.110Z,5.40
2018-03-28T08:09:25.867Z,8.33
2018-03-28T08:12:01.257Z,7.13
2018-03-28T08:14:37.969Z,6.17
2018-03-28T08:17:12.766Z,6.53
2018-03-28T08:19:47.653Z,7.03
2018-03-28T08:22:21.472Z,7.17
2018-03-28T08:24:57.503Z,5.90
2018-03-28T08:27:31.371Z,5.73
2018-03-28T08:30:05.604Z,5.77
2018-03-28T08:32:41.026Z,8.53
2018-03-28T08:35:14.944Z,6.43
2018-03-28T08:37:49.278Z,7.40
2018-03-28T08:40:24.012Z,4.97
2018-03-28T08:42:59.338Z,4.40
2018-03-28T08:45:33.155Z,5.23
2018-03-28T08:48:09.011Z,5.77
2018-03-28T08:50:43.625Z,4.30
2018-03-28T08:53:18.249Z,5.47
2018-03-28T08:55:53.080Z,4.93
2018-03-28T08:58:28.653Z,4.97
2018-03-28T09:01:03.539Z,8.03
2018-03-28T09:03:45.337Z,5.73
2018-03-28T09:06:21.603Z,5.73
2018-03-28T09:08:55.845Z,5.20
2018-03-28T09:11:30.354Z,5.50
2018-03-28T09:14:04.755Z,3.30
2018-03-28T09:16:40.205Z,3.43
2018-03-28T09:19:15.048Z,3.47
2018-03-28T09:21:49.568Z,4.30
2018-03-28T09:24:24.479Z,6.07
2018-03-28T09:26:58.409Z,3.73
2018-03-28T09:29:33.047Z,5.03
2018-03-28T09:32:08.549Z,4.10
2018-03-28T09:34:42.351Z,3.20
2018-03-28T09:37:16.455Z,5.27
2018-03-28T09:39:51.907Z,2.63
2018-03-28T09:42:27.457Z,2.80
2018-03-28T09:45:02.303Z,2.53
2018-03-28T09:47:36.428Z,3.57
2018-03-28T09:50:11.311Z,3.20
2018-03-28T09:52:45.803Z,2.20
2018-03-28T09:55:19.756Z,4.17
2018-03-28T09:57:53.569Z,3.27
2018-03-28T10:00:29.227Z,2.10
2018-03-28T10:03:10.400Z,2.17
2018-03-28T10:05:45.332Z,2.83
2018-03-28T10:08:19.011Z,2.83
2018-03-28T10:10:53.538Z,1.87
2018-03-28T10:13:27.465Z,3.20
2018-03-28T10:16:01.447Z,2.57
2018-03-28T10:18:36.308Z,1.63
2018-03-28T10:21:10.494Z,1.87
2018-03-28T10:23:44.300Z,3.73
2018-03-28T10:26:19.547Z,2.13
2018-03-28T10:28:53.554Z,4.10
2018-03-28T10:31:28.500Z,3.57
2018-03-28T10:34:02.397Z,4.13
2018-03-28T10:36:36.410Z,4.00
2018-03-28T10:39:10.419Z,2.17
2018-03-28T10:41:44.524Z,2.93
2018-03-28T10:44:18.336Z,4.40
2018-03-28T10:46:52.951Z,2.73
2018-03-28T10:49:27.059Z,2.67
2018-03-28T10:52:01.581Z,3.80
2018-03-28T10:54:36.536Z,4.50
2018-03-28T10:57:11.563Z,5.60
2018-03-28T10:59:46.290Z,3.23
2018-03-28T11:02:21.673Z,2.40
2018-03-28T11:04:58.310Z,1.80
2018-03-28T11:07:33.113Z,2.03
2018-03-28T11:10:08.365Z,1.77
2018-03-28T11:12:43.075Z,1.40
2018-03-28T11:15:17.684Z,2.00
2018-03-28T11:17:52.135Z,1.60
2018-03-28T11:20:26.569Z,1.43
2018-03-28T11:23:00.262Z,2.17
2018-03-28T11:25:35.276Z,5.57
2018-03-28T11:28:09.811Z,1.60
2018-03-28T11:30:44.336Z,7.83
2018-03-28T11:33:18.921Z,2.97
2018-03-28T11:35:53.270Z,4.17
2018-03-28T11:38:27.176Z,2.90
2018-03-28T11:41:03.013Z,3.53
2018-03-28T11:43:36.793Z,4.53
2018-03-28T11:46:11.437Z,2.87
2018-03-28T11:48:46.282Z,2.90
2018-03-28T11:51:20.793Z,2.27
2018-03-28T11:53:55.720Z,1.90
2018-03-28T11:56:30.543Z,2.70
2018-03-28T11:59:04.183Z,2.53
2018-03-28T12:01:39.288Z,2.73
2018-03-28T12:04:13.708Z,3.50
2018-03-28T12:06:48.542Z,3.70
2018-03-28T12:09:22.339Z,2.20
2018-03-28T12:11:56.467Z,2.60
2018-03-28T12:14:30.962Z,3.70
2018-03-28T12:17:06.208Z,2.53
2018-03-28T12:19:40.307Z,2.77
2018-03-28T12:22:15.243Z,2.40
2018-03-28T12:24:49.678Z,2.33
2018-03-28T12:27:23.476Z,3.47
2018-03-28T12:29:59.643Z,4.40
2018-03-28T12:32:33.459Z,1.90
2018-03-28T12:35:08.184Z,1.80
2018-03-28T12:37:41.796Z,3.57
2018-03-28T12:40:17.388Z,2.23
2018-03-28T12:42:51.099Z,3.73
2018-03-28T12:45:25.685Z,2.63
2018-03-28T12:48:00.579Z,1.87
2018-03-28T12:50:35.430Z,2.53
2018-03-28T12:53:09.712Z,2.50
2018-03-28T12:55:44.128Z,3.17
2018-03-28T12:58:18.842Z,4.37
2018-03-28T13:00:52.476Z,2.63
2018-03-28T13:03:27.172Z,3.80
2018-03-28T13:06:01.034Z,3.77
2018-03-28T13:08:34.790Z,3.47
2018-03-28T13:11:10.306Z,2.40
2018-03-28T13:13:45.490Z,2.10
2018-03-28T13:16:19.871Z,4.50
2018-03-28T13:18:53.695Z,4.00
2018-03-28T13:21:28.527Z,3.37
2018-03-28T13:24:02.719Z,3.50
2018-03-28T13:26:36.646Z,3.23
2018-03-28T13:29:11.339Z,4.03
2018-03-28T13:31:46.403Z,2.30
2018-03-28T13:34:20.203Z,3.40
2018-03-28T13:36:54.045Z,2.90
2018-03-28T13:39:28.827Z,2.50
2018-03-28T13:42:03.149Z,4.93
2018-03-28T13:44:37.071Z,4.30
2018-03-28T13:47:10.968Z,2.20
2018-03-28T13:49:45.466Z,2.47
2018-03-28T13:52:20.530Z,2.20
2018-03-28T13:54:55.405Z,2.50
2018-03-28T13:57:29.983Z,3.53
2018-03-28T14:00:04.468Z,2.43
2018-03-28T14:02:39.164Z,2.60
2018-03-28T14:05:13.556Z,2.83
2018-03-28T14:07:47.515Z,4.73
2018-03-28T14:10:21.265Z,3.10
2018-03-28T14:12:55.716Z,3.10
2018-03-28T14:15:30.302Z,3.20
2018-03-28T14:18:04.709Z,3.10
2018-03-28T14:20:39.844Z,3.73
2018-03-28T14:23:14.781Z,2.80
2018-03-28T14:25:49.386Z,3.83
2018-03-28T14:28:23.112Z,3.40
2018-03-28T14:30:57.924Z,4.57
2018-03-28T14:33:32.673Z,3.00
2018-03-28T14:36:07.621Z,4.90
2018-03-28T14:38:42.206Z,3.33
2018-03-28T14:41:15.930Z,2.90
2018-03-28T14:43:50.629Z,3.07
2018-03-28T14:46:24.224Z,3.97
2018-03-28T14:48:58.282Z,5.07
2018-03-28T14:51:32.979Z,2.83
2018-03-28T14:54:07.706Z,2.10
2018-03-28T14:56:41.801Z,2.67
2018-03-28T14:59:16.430Z,3.03
2018-03-28T15:01:50.327Z,3.13
2018-03-28T15:04:24.959Z,5.73
2018-03-28T15:06:59.582Z,2.00
2018-03-28T15:09:34.339Z,2.97
2018-03-28T15:12:09.347Z,4.27
2018-03-28T15:14:43.492Z,4.70
2018-03-28T15:17:19.027Z,2.37
2018-03-28T15:19:53.711Z,2.20
2018-03-28T15:22:28.154Z,2.60
2018-03-28T15:25:02.063Z,3.97
2018-03-28T15:27:38.434Z,2.10
2018-03-28T15:30:13.151Z,3.40
2018-03-28T15:32:47.566Z,4.60
2018-03-28T15:35:21.917Z,2.20
2018-03-28T15:37:57.043Z,2.93
2018-03-28T15:40:32.154Z,3.77
2018-03-28T15:43:10.888Z,2.63
2018-03-28T15:45:45.924Z,3.90
2018-03-28T15:48:20.533Z,4.13
2018-03-28T15:50:54.856Z,3.37
2018-03-28T15:53:29.670Z,7.03
2018-03-28T15:56:03.395Z,3.53
2018-03-28T15:58:38.219Z,5.93
2018-03-28T16:01:12.248Z,3.00
2018-03-28T16:03:46.236Z,2.87
2018-03-28T16:06:20.133Z,2.40
2018-03-28T16:08:54.714Z,1.97
2018-03-28T16:11:28.589Z,3.87
2018-03-28T16:14:02.206Z,2.23
2018-03-28T16:16:36.061Z,2.10
2018-03-28T16:19:09.900Z,1.63
2018-03-28T16:21:43.895Z,1.30
2018-03-28T16:24:18.208Z,1.63
2018-03-28T16:26:51.916Z,2.77
2018-03-28T16:29:26.527Z,2.53
2018-03-28T16:32:00.839Z,1.77
2018-03-28T16:34:40.592Z,1.70
2018-03-28T16:37:14.489Z,2.73
2018-03-28T16:39:49.135Z,1.53
2018-03-28T16:42:22.931Z,1.70
2018-03-28T16:44:58.803Z,1.73
2018-03-28T16:47:32.609Z,1.90
2018-03-28T16:50:07.422Z,2.03
2018-03-28T16:52:42.398Z,1.97
2018-03-28T16:55:17.798Z,1.30
2018-03-28T16:57:51.602Z,2.03
2018-03-28T17:00:27.850Z,1.60
2018-03-28T17:03:01.768Z,1.90
2018-03-28T17:05:37.226Z,1.50
2018-03-28T17:08:12.288Z,1.70
2018-03-28T17:10:47.983Z,1.40
2018-03-28T17:13:23.043Z,3.23
2018-03-28T17:15:58.555Z,1.57
2018-03-28T17:18:33.628Z,1.60
2018-03-28T17:21:09.263Z,1.30
2018-03-28T17:23:43.764Z,1.60
2018-03-28T17:26:17.772Z,2.53
2018-03-28T17:28:51.770Z,1.60
2018-03-28T17:31:25.782Z,1.70
2018-03-28T17:34:00.289Z,1.67
2018-03-28T17:36:35.033Z,1.90
2018-03-28T17:39:09.662Z,1.97
2018-03-28T17:41:44.671Z,1.70
2018-03-28T17:57:19.798Z,1.10
2018-03-28T17:59:54.040Z,1.43
2018-03-28T18:02:31.007Z,1.77
2018-03-28T18:05:05.138Z,1.70
2018-03-28T18:07:39.959Z,2.77
2018-03-28T18:10:14.152Z,2.20
2018-03-28T18:12:48.168Z,1.40
2018-03-28T18:15:22.405Z,2.70
2018-03-28T18:17:56.104Z,1.43
2018-03-28T18:20:32.563Z,2.13
2018-03-28T18:23:07.994Z,1.90
2018-03-28T18:25:42.219Z,2.00
2018-03-28T18:28:17.212Z,2.20
2018-03-28T18:30:52.303Z,2.13
2018-03-28T18:33:27.366Z,2.90
2018-03-28T18:36:02.082Z,2.37
2018-03-28T18:38:36.209Z,2.10
2018-03-28T18:41:10.367Z,2.30
2018-03-28T18:43:45.913Z,3.57
2018-03-28T18:46:20.615Z,2.20
2018-03-28T18:48:55.163Z,2.90
2018-03-28T18:51:30.702Z,2.40
2018-03-28T18:54:04.606Z,1.97
2018-03-28T18:56:39.688Z,2.20
2018-03-28T18:59:14.362Z,3.43
2018-03-28T19:01:49.435Z,2.70
2018-03-28T19:04:23.213Z,2.93
2018-03-28T19:06:59.773Z,2.47
2018-03-28T19:09:35.219Z,4.57
2018-03-28T19:12:10.306Z,4.53
2018-03-28T19:14:45.985Z,7.07
2018-03-28T19:17:20.075Z,7.73
2018-03-28T19:19:54.740Z,16.93
2018-03-28T19:22:29.501Z,5.70
2018-03-28T19:25:04.786Z,6.73
2018-03-28T19:27:40.045Z,5.67
2018-03-28T19:30:13.864Z,11.43
2018-03-28T19:32:49.697Z,8.03
2018-03-28T19:35:24.216Z,16.63
2018-03-28T19:37:59.366Z,9.07
2018-03-28T19:40:34.056Z,9.87
2018-03-28T19:43:09.102Z,13.00
2018-03-28T19:45:43.113Z,6.60
2018-03-28T19:48:18.354Z,8.53
2018-03-28T19:50:53.103Z,8.33
2018-03-28T19:53:28.221Z,2.77
2018-03-28T19:56:04.576Z,10.27
2018-03-28T19:58:40.020Z,2.00
2018-03-28T20:01:16.264Z,28.23
2018-03-28T20:03:51.231Z,7.00
2018-03-28T20:06:24.922Z,4.40
2018-03-28T20:08:59.751Z,3.67
2018-03-28T20:11:33.450Z,2.40
2018-03-28T20:14:08.229Z,1.90
2018-03-28T20:16:42.716Z,3.77
2018-03-28T20:19:19.087Z,1.80
2018-03-28T20:21:54.491Z,2.13
2018-03-28T20:24:30.468Z,2.70
2018-03-28T20:27:04.648Z,2.20
2018-03-28T20:29:39.412Z,2.60
2018-03-28T20:32:13.471Z,2.10
2018-03-28T20:34:50.492Z,2.43
2018-03-28T20:37:25.170Z,2.77
2018-03-28T20:40:00.516Z,3.53
2018-03-28T20:42:35.481Z,1.80
2018-03-28T20:45:09.644Z,2.70
2018-03-28T20:47:43.495Z,2.13
2018-03-28T20:50:17.929Z,2.93
2018-03-28T20:52:52.972Z,2.13
2018-03-28T20:55:27.939Z,2.40
2018-03-28T20:58:04.338Z,2.00
2018-03-28T21:00:40.926Z,2.27
2018-03-28T21:03:15.035Z,2.97
2018-03-28T21:05:50.581Z,2.20
2018-03-28T21:08:24.873Z,4.47
2018-03-28T21:10:59.697Z,2.70
2018-03-28T21:13:33.638Z,2.80
2018-03-28T21:16:09.696Z,3.60
2018-03-28T21:18:43.550Z,3.77
2018-03-28T21:21:19.647Z,4.53
2018-03-28T21:23:54.395Z,4.17
2018-03-28T21:26:29.317Z,4.63
2018-03-28T21:29:04.715Z,5.23
2018-03-28T21:31:38.576Z,1.80
2018-03-28T21:34:13.452Z,6.83
2018-03-28T21:36:47.059Z,3.67
2018-03-28T21:39:22.128Z,2.70
2018-03-28T21:41:57.865Z,3.33
2018-03-28T21:44:32.384Z,2.57
2018-03-28T21:47:07.146Z,2.17
2018-03-28T21:49:41.635Z,2.07
2018-03-28T21:52:15.617Z,1.87
2018-03-28T21:54:50.487Z,2.17
2018-03-28T21:57:25.611Z,2.67
2018-03-28T22:00:00.351Z,2.47
2018-03-28T22:02:35.295Z,1.50
2018-03-28T22:05:10.103Z,2.27
2018-03-28T22:07:45.005Z,1.57
2018-03-28T22:10:19.623Z,1.57
2018-03-28T22:12:54.278Z,1.60
2018-03-28T22:15:29.764Z,2.33
2018-03-28T22:18:05.064Z,2.93
2018-03-28T22:20:40.632Z,1.30
2018-03-28T22:23:15.614Z,1.80
2018-03-28T22:25:50.483Z,1.73
2018-03-28T22:28:24.282Z,1.83
2018-03-28T22:30:58.583Z,3.17
2018-03-28T22:33:33.623Z,1.27
2018-03-28T22:36:07.973Z,1.50
2018-03-28T22:38:42.648Z,1.60
2018-03-28T22:41:17.684Z,1.10
2018-03-28T22:43:52.846Z,1.10
2018-03-28T22:46:26.771Z,1.60
2018-03-28T22:49:02.676Z,1.30
2018-03-28T22:51:37.349Z,1.30
2018-03-28T22:54:11.757Z,1.47
2018-03-28T22:56:47.293Z,1.40
2018-03-28T22:59:21.812Z,1.40
2018-03-28T23:01:56.345Z,1.37
2018-03-28T23:04:31.885Z,1.80
2018-03-28T23:07:06.218Z,1.60
2018-03-28T23:09:42.256Z,1.70
2018-03-28T23:12:17.514Z,1.90
2018-03-28T23:14:51.716Z,1.83
2018-03-28T23:17:30.539Z,1.90
2018-03-28T23:20:05.271Z,2.20
2018-03-28T23:22:40.308Z,2.10
2018-03-28T23:25:14.169Z,2.00
2018-03-28T23:27:49.335Z,2.00
2018-03-28T23:30:23.436Z,1.90
2018-03-28T23:33:00.124Z,2.23
2018-03-28T23:35:34.703Z,2.13
2018-03-28T23:38:09.888Z,2.40
2018-03-28T23:40:44.761Z,2.20
2018-03-28T23:43:21.707Z,2.30
2018-03-28T23:45:56.574Z,2.60
2018-03-28T23:48:31.549Z,2.40
2018-03-28T23:51:06.648Z,2.77
2018-03-28T23:53:41.258Z,3.03
2018-03-28T23:56:15.176Z,2.50
2018-03-28T23:58:50.271Z,2.40
